Joint Base Pearl Harbor Hickam, HI (96853)

11:31 AM HST on March 03, 2015 (GMT -1000)
Ewa | Change Station
CLOSE
Current Station
Personal Weather Station
Location: Ewa Beach, HI
Elevation: 46 ft
Nearby Weather Stations

Elev 46 ft 21.34 °N, 158.03 °W | Updated 16 minutes ago

Mostly Cloudy
Mostly Cloudy
82.2 °F
Feels Like 85 °F
N
5.4
Wind Variable Wind from ENE
Gusts 11.9 mph

Today
High -- | Low -- °F
--% Chance of Precip.
Yesterday
High -- | Low -- °F
Precip. -- in
6:50 AM 6:36 PM
Waxing Gibbous, 97% visible
Pressure 30.05 in
Visibility 10.0 miles
Clouds Few 2500 ft
Scattered Clouds 3300 ft
Scattered Clouds 3800 ft
Mostly Cloudy 25000 ft
Heat Index 85 °F
Dew Point 68 °F
Humidity 63%
Rainfall -999.00 in
Snow Depth Not available.
UV 4 out of 12
Pollen Not available.
Air Quality Not available.
Flu Activity Not available.
METAR PHNL 032053Z 05008KT 10SM FEW025 SCT033 SCT038 BKN250 27/19 A3005 RMK AO2 SLP174 VCSH E T02720189 50002 $

More Conditions Fewer Conditions

Pressure 30.05 in
Visibility 10.0 miles
Clouds Few 2500 ft
Scattered Clouds 3300 ft
Scattered Clouds 3800 ft
Mostly Cloudy 25000 ft
Heat Index 85 °F
Dew Point 68 °F
Humidity 63%
Rainfall -999.00 in
Snow Depth Not available.
UV 4 out of 12
Pollen Not available.
Air Quality Not available.
Flu Activity Not available.
METAR PHNL 032053Z 05008KT 10SM FEW025 SCT033 SCT038 BKN250 27/19 A3005 RMK AO2 SLP174 VCSH E T02720189 50002 $

More Conditions Fewer Conditions

10-Day Weather Forecast

Almanac

Astronomy

Mar. 03, 2015 Rise Set
Actual Time
Civil Twilight
Nautical Twilight
Astronomical Twilight
Moon
Length of Visible Light
Length of Day
Tomorrow will be .
, % of the Moon is Illuminated

Today's Extremes

State Highs State Lows

Community

WunderPhotos

Upload Photos

1,802,261 photos uploaded!

WunderBlogs® & News

Nearby

Air Quality

  Air Quality AQ Index Pollutant
Not available.

Snow Depth

Station Depth Elevation

Earthquake Activity

City Distance Mag. Time & Date
Minimum magnitude displayed is 2.5.

Coastal Water Temperatures

Place Temperature

Nearby Weather Stations